Time;durP1;ratioP1;P1;durP2;ratioP2;P2;SDS_P1;SDS_P2;PMS_P1;PMS_P2;Temp;Humidity;BMP_temperature;BMP_pressure;BME280_temperature;BME280_humidity;BME280_pressure;Samples;Min_cycle;Max_cycle;Signal;HPM_P1;HPM_P2
2023/10/05 00:01:20;;;;;;;6.30;1.30;;;;;;;-146.27;61.45;81765.53;5017902;28;20022;-68
2023/10/05 00:03:51;;;;;;;7.20;1.38;;;;;;;-146.27;61.33;81769.53;5013116;28;20040;-68
2023/10/05 00:06:23;;;;;;;8.77;1.73;;;;;;;-146.27;61.33;81721.34;5015325;28;20022;-68
2023/10/05 00:08:49;;;;;;;9.93;2.75;;;;;;;-146.27;61.77;81823.78;5027854;28;20506;-68
2023/10/05 00:11:23;;;;;;;9.10;1.63;;;;;;;-146.27;61.99;81841.84;5022015;28;20109;-68
2023/10/05 00:13:59;;;;;;;10.90;1.50;;;;;;;-146.27;62.07;81755.47;5019315;28;20468;-68
2023/10/05 00:16:37;;;;;;;7.32;1.42;;;;;;;-146.27;61.63;81751.47;5020074;28;20129;-68
2023/10/05 00:19:11;;;;;;;9.50;1.75;;;;;;;-146.27;61.96;81767.53;5026050;28;20051;-69
2023/10/05 00:21:51;;;;;;;7.75;1.70;;;;;;;-146.27;62.53;81791.63;5017677;28;20048;-68
2023/10/05 00:24:23;;;;;;;10.48;1.77;;;;;;;-146.27;63.40;81829.78;5014763;28;20033;-68
2023/10/05 00:26:49;;;;;;;8.98;1.33;;;;;;;-146.27;62.76;81753.47;5022252;28;20030;-68
2023/10/05 00:31:44;;;;;;;8.18;2.03;;;;;;;-146.27;63.85;81878.00;5024664;28;20048;-69
2023/10/05 00:34:13;;;;;;;8.77;1.63;;;;;;;-146.27;63.19;81771.53;5029684;28;20079;-68
2023/10/05 00:36:43;;;;;;;6.78;1.88;;;;;;;-146.27;63.86;81837.81;5023994;28;20565;-68
2023/10/05 00:39:09;;;;;;;8.88;1.50;;;;;;;-146.27;63.07;81773.56;5029661;28;20033;-68
2023/10/05 00:41:36;;;;;;;12.57;2.35;;;;;;;-146.27;62.65;81823.78;5021807;28;20108;-68
2023/10/05 00:44:04;;;;;;;9.65;1.70;;;;;;;-146.27;62.15;81811.72;5016347;28;20032;-69
2023/10/05 00:46:31;;;;;;;17.13;2.00;;;;;;;-146.27;61.71;81781.59;5024889;28;20469;-70
2023/10/05 00:49:05;;;;;;;11.23;2.20;;;;;;;-146.27;62.07;81847.88;5019374;28;20030;-69
2023/10/05 00:51:33;;;;;;;8.48;1.73;;;;;;;-146.27;61.44;81849.88;5025033;28;20036;-68
2023/10/05 00:54:10;;;;;;;6.55;1.65;;;;;;;-146.27;60.73;81821.75;5019996;28;20038;-68
2023/10/05 00:56:38;;;;;;;6.90;1.33;;;;;;;-146.27;61.12;81892.06;5016136;28;20029;-71
2023/10/05 00:59:09;;;;;;;14.35;2.67;;;;;;;-146.27;60.94;81906.13;5023214;28;20048;-71
2023/10/05 01:04:34;;;;;;;10.80;1.88;;;;;;;-146.27;59.10;81797.66;5015038;28;20045;-71
2023/10/05 01:07:17;;;;;;;;;;;;;;;-146.27;58.95;81757.50;5019542;28;20030;-71
2023/10/05 01:12:35;;;;;;;7.55;1.80;;;;;;;-146.27;59.59;81811.72;5027525;28;20535;-72
2023/10/05 01:15:05;;;;;;;13.98;1.92;;;;;;;-146.27;58.89;81759.50;5022421;28;20111;-71
2023/10/05 01:17:32;;;;;;;6.22;1.67;;;;;;;-146.27;60.67;81863.94;5026550;28;20045;-71
2023/10/05 01:20:37;;;;;;;8.00;1.55;;;;;;;-146.27;59.83;81793.66;5026744;28;20033;-71
2023/10/05 01:22:55;;;;;;;12.00;2.05;;;;;;;-146.27;59.81;81845.88;5020610;28;20041;-70
2023/10/05 01:25:21;;;;;;;8.80;1.85;;;;;;;-146.27;59.49;81781.59;5022751;28;20021;-71
2023/10/05 01:27:50;;;;;;;5.32;1.52;;;;;;;-146.27;60.13;81869.97;5025414;28;20036;-71
2023/10/05 01:30:16;;;;;;;11.80;2.25;;;;;;;-146.27;59.86;81855.91;5027370;28;20040;-71
2023/10/05 01:32:42;;;;;;;10.38;1.80;;;;;;;-146.27;59.81;81873.97;5026883;28;20108;-71
2023/10/05 01:35:13;;;;;;;8.43;1.75;;;;;;;-146.27;59.66;81849.88;5028501;28;20031;-71
2023/10/05 01:37:46;;;;;;;6.35;1.40;;;;;;;-146.27;59.48;81865.94;5019351;28;20037;-71
2023/10/05 01:42:46;;;;;;;5.30;1.40;;;;;;;-146.27;58.72;81825.78;5013553;28;20088;-71
2023/10/05 01:45:15;;;;;;;9.27;1.58;;;;;;;-146.27;58.44;81837.81;5026154;28;20017;-71
2023/10/05 01:47:43;;;;;;;9.98;1.55;;;;;;;-146.27;58.44;81785.59;5020786;28;20029;-71
2023/10/05 01:50:18;;;;;;;8.95;1.92;;;;;;;-146.27;58.40;81869.97;5027426;28;20121;-71
2023/10/05 01:52:45;;;;;;;7.45;1.70;;;;;;;-146.27;58.35;81865.94;5027841;28;20512;-71
2023/10/05 01:55:12;;;;;;;6.88;1.83;;;;;;;-146.27;58.85;81894.06;5022414;28;20017;-71
2023/10/05 01:57:39;;;;;;;6.60;1.17;;;;;;;-146.27;57.76;81873.97;5019618;28;20461;-71
2023/10/05 02:00:13;;;;;;;11.57;1.70;;;;;;;-146.27;56.91;81829.78;5027113;28;20607;-71
2023/10/05 02:02:41;;;;;;;7.45;1.23;;;;;;;-146.27;56.95;81859.94;5025692;28;20139;-71
2023/10/05 02:05:07;;;;;;;10.88;2.22;;;;;;;-146.27;57.35;81853.91;5026068;28;20041;-68
2023/10/05 02:07:35;;;;;;;16.10;2.90;;;;;;;-146.27;56.95;81783.59;5027067;28;20014;-68
2023/10/05 02:10:03;;;;;;;7.30;1.85;;;;;;;-146.27;57.96;81811.72;5024026;28;20137;-69
2023/10/05 02:12:29;;;;;;;5.18;1.42;;;;;;;-146.27;58.25;81805.69;5026239;28;20025;-69
2023/10/05 02:14:57;;;;;;;18.65;1.88;;;;;;;-146.27;58.50;81773.56;5021138;28;20041;-67
2023/10/05 02:17:23;;;;;;;12.85;2.58;;;;;;;-146.27;59.03;81783.59;5028259;28;21136;-69
2023/10/05 02:19:49;;;;;;;10.18;2.05;;;;;;;-146.27;59.43;81823.78;5026929;28;20029;-68
2023/10/05 02:22:14;;;;;;;5.70;1.45;;;;;;;-146.27;59.84;81845.88;5027155;28;20067;-68
2023/10/05 02:24:40;;;;;;;9.77;2.25;;;;;;;-146.27;60.79;81918.16;5025781;28;20077;-68
2023/10/05 02:27:14;;;;;;;8.63;1.75;;;;;;;-146.27;60.40;81914.16;5023268;28;20028;-67
2023/10/05 02:29:41;;;;;;;6.13;1.65;;;;;;;-146.27;59.81;81829.78;5016270;28;20462;-68
2023/10/05 02:32:11;;;;;;;9.60;2.03;;;;;;;-146.27;60.01;81886.03;5030050;28;20060;-69
2023/10/05 02:34:42;;;;;;;13.00;1.95;;;;;;;-146.27;59.41;81861.94;5021582;28;20087;-68
2023/10/05 02:37:11;;;;;;;13.10;2.72;;;;;;;-146.27;59.03;81831.81;5027327;28;20104;-68
2023/10/05 02:39:37;;;;;;;9.55;1.73;;;;;;;-146.27;58.86;81801.69;5015893;28;20035;-69
2023/10/05 02:42:11;;;;;;;7.22;1.67;;;;;;;-146.27;60.09;81884.03;5024585;28;20029;-69
2023/10/05 02:44:40;;;;;;;9.98;2.20;;;;;;;-146.27;59.99;81867.97;5029489;28;20030;-68
2023/10/05 02:47:13;;;;;;;12.50;2.78;;;;;;;-146.27;59.98;81869.97;5015477;28;20036;-68
2023/10/05 02:49:43;;;;;;;9.63;1.80;;;;;;;-146.27;59.77;81833.81;5017022;28;20116;-69
2023/10/05 02:52:13;;;;;;;9.43;1.73;;;;;;;-146.27;60.15;81873.97;5016138;28;20394;-69
2023/10/05 02:54:40;;;;;;;8.93;1.77;;;;;;;-146.27;60.15;81890.06;5014434;28;20497;-68
2023/10/05 02:57:16;;;;;;;10.95;1.80;;;;;;;-146.27;59.69;81888.03;5025595;28;20501;-68
2023/10/05 02:59:44;;;;;;;12.85;1.98;;;;;;;-146.27;60.04;81902.09;5019616;28;20159;-68
2023/10/05 03:02:14;;;;;;;13.75;2.92;;;;;;;-146.27;59.46;81853.91;5019329;28;20401;-69
2023/10/05 03:04:58;;;;;;;10.23;1.52;;;;;;;-146.27;60.62;81972.41;5017202;28;20030;-69
2023/10/05 03:07:27;;;;;;;12.02;1.88;;;;;;;-146.27;60.90;81948.31;5021078;28;20401;-68
2023/10/05 03:09:58;;;;;;;10.93;2.20;;;;;;;-146.27;60.70;81912.16;5025373;28;20063;-68
2023/10/05 03:12:23;;;;;;;8.85;2.15;;;;;;;-146.27;61.43;81970.41;5024989;28;20033;-68
2023/10/05 03:14:50;;;;;;;12.43;2.58;;;;;;;-146.27;61.37;81960.34;5027964;28;20145;-68
2023/10/05 03:17:19;;;;;;;6.75;1.77;;;;;;;-146.27;61.31;81904.13;5020746;28;20467;-70
2023/10/05 03:19:45;;;;;;;6.22;1.77;;;;;;;-146.27;61.64;81922.19;5022992;28;20070;-70
2023/10/05 03:22:13;;;;;;;5.72;1.70;;;;;;;-146.27;61.62;81882.00;5028243;28;20033;-71
2023/10/05 03:24:47;;;;;;;11.40;2.13;;;;;;;-146.27;61.55;81865.94;5026639;28;20048;-71
2023/10/05 03:27:13;;;;;;;10.60;1.60;;;;;;;-146.27;62.08;81878.00;5026017;28;20481;-71
2023/10/05 03:29:39;;;;;;;11.25;2.33;;;;;;;-146.27;62.12;81922.19;5026710;28;20049;-71
2023/10/05 03:34:34;;;;;;;8.88;2.25;;;;;;;-146.27;63.45;81954.31;5027049;28;20084;-71
2023/10/05 03:37:13;;;;;;;10.02;1.90;;;;;;;-146.27;63.00;81904.13;5025684;28;20037;-71
2023/10/05 03:39:51;;;;;;;11.30;1.88;;;;;;;-146.27;64.04;81974.41;5023488;28;20429;-71
2023/10/05 03:42:17;;;;;;;9.70;2.03;;;;;;;-146.27;64.46;82030.66;5017753;28;20478;-71
2023/10/05 03:44:42;;;;;;;5.95;2.08;;;;;;;-146.27;64.37;81950.31;5023196;28;20088;-70
2023/10/05 03:47:08;;;;;;;9.52;2.20;;;;;;;-146.27;64.93;81966.38;5015442;28;20033;-71
2023/10/05 03:49:33;;;;;;;10.43;1.80;;;;;;;-146.27;64.68;81926.22;5023512;28;20112;-71
2023/10/05 03:52:00;;;;;;;12.48;2.00;;;;;;;-146.27;64.59;81972.41;5022327;28;20036;-71
2023/10/05 03:54:25;;;;;;;10.38;2.20;;;;;;;-146.27;64.88;81954.31;5024519;28;20104;-71
2023/10/05 03:57:04;;;;;;;9.63;2.10;;;;;;;-146.27;64.85;81974.41;5016445;28;20105;-71
2023/10/05 03:59:32;;;;;;;7.00;2.22;;;;;;;-146.27;64.94;82006.53;5026802;28;20556;-71
2023/10/05 04:01:59;;;;;;;12.82;2.10;;;;;;;-146.27;65.34;82022.63;5018729;28;20100;-71
2023/10/05 04:04:30;;;;;;;8.40;1.88;;;;;;;-146.27;65.12;82038.69;5022734;28;20080;-71
2023/10/05 04:06:57;;;;;;;9.27;2.17;;;;;;;-146.27;64.92;82022.63;5020882;28;20390;-70
2023/10/05 04:09:23;;;;;;;14.18;1.70;;;;;;;-146.27;65.20;82048.72;5020480;28;20034;-70
2023/10/05 04:11:48;;;;;;;16.48;3.47;;;;;;;-146.27;64.24;81986.47;5021181;28;20103;-70
2023/10/05 04:14:14;;;;;;;11.63;2.17;;;;;;;-146.27;64.54;82014.59;5033513;28;20563;-70
2023/10/05 04:16:42;;;;;;;15.07;2.40;;;;;;;-146.27;64.65;82022.63;5022645;28;20014;-70
2023/10/05 04:19:10;;;;;;;10.63;3.13;;;;;;;-146.27;64.70;82022.63;5028228;28;20037;-70
2023/10/05 04:21:36;;;;;;;8.45;1.90;;;;;;;-146.27;64.33;82036.69;5023442;28;20026;-70
2023/10/05 04:24:02;;;;;;;8.35;1.63;;;;;;;-146.27;64.07;82018.59;5026131;28;20031;-70
2023/10/05 04:26:37;;;;;;;8.95;1.65;;;;;;;-146.27;64.52;82072.84;5027679;28;20026;-71
2023/10/05 04:29:04;;;;;;;13.35;2.90;;;;;;;-146.27;64.48;82022.63;5028043;28;20025;-70
2023/10/05 04:31:31;;;;;;;11.63;2.00;;;;;;;-146.27;65.03;82020.59;5023842;28;20051;-70
2023/10/05 04:33:57;;;;;;;6.05;1.20;;;;;;;-146.27;64.86;81994.50;5026362;28;20500;-70
2023/10/05 04:36:25;;;;;;;10.20;1.80;;;;;;;-146.27;64.99;82026.63;5028604;28;20021;-70
2023/10/05 04:38:55;;;;;;;10.65;1.75;;;;;;;-146.27;64.98;82006.53;5032146;28;20959;-70
2023/10/05 04:41:49;;;;;;;10.13;1.70;;;;;;;-146.27;64.76;82060.78;5026951;28;20029;-70
2023/10/05 04:44:12;;;;;;;6.85;1.25;;;;;;;-146.27;64.65;81998.50;5019300;28;20048;-70
2023/10/05 04:46:46;;;;;;;8.10;1.90;;;;;;;-146.27;65.04;82032.66;5022492;28;20026;-70
2023/10/05 04:49:12;;;;;;;13.73;1.70;;;;;;;-146.27;65.29;82064.81;5018454;28;20025;-70
2023/10/05 04:51:40;;;;;;;11.52;1.75;;;;;;;-146.27;64.59;81976.41;5024849;28;20087;-70
2023/10/05 04:54:07;;;;;;;5.43;1.73;;;;;;;-146.27;65.02;82040.69;5022565;28;20463;-70
2023/10/05 04:56:40;;;;;;;8.90;2.03;;;;;;;-146.27;64.81;82014.59;5024062;28;20660;-70
2023/10/05 05:01:56;;;;;;;7.35;1.67;;;;;;;-146.27;64.70;81990.47;5028082;28;20044;-70
2023/10/05 05:07:02;;;;;;;6.18;1.30;;;;;;;-146.27;65.07;81978.44;5025138;28;20117;-67
2023/10/05 05:09:34;;;;;;;8.02;2.03;;;;;;;-146.27;66.39;82020.59;5026653;28;20029;-67
2023/10/05 05:12:08;;;;;;;11.93;1.95;;;;;;;-146.27;66.94;82042.69;5015866;28;20072;-69
2023/10/05 05:14:36;;;;;;;8.85;1.65;;;;;;;-146.27;66.83;82038.69;5025664;28;20054;-67
2023/10/05 05:17:06;;;;;;;9.77;2.13;;;;;;;-146.27;66.73;82022.63;5026861;28;20049;-67
2023/10/05 05:19:32;;;;;;;8.50;1.90;;;;;;;-146.27;67.18;82042.69;5023297;28;20033;-69
2023/10/05 05:21:59;;;;;;;4.00;1.35;;;;;;;-146.27;67.82;82104.97;5025703;28;20022;-67
2023/10/05 05:24:28;;;;;;;10.98;3.00;;;;;;;-146.27;67.36;82104.97;5030897;28;20112;-69
2023/10/05 05:27:03;;;;;;;11.15;2.45;;;;;;;-146.27;67.64;82074.84;5030153;28;20108;-67
2023/10/05 05:29:30;;;;;;;8.65;1.50;;;;;;;-146.27;67.22;82046.72;5024948;28;20102;-67
2023/10/05 05:32:07;;;;;;;5.38;1.23;;;;;;;-146.27;67.06;82006.53;5021920;28;20494;-69
2023/10/05 05:34:33;;;;;;;5.72;1.52;;;;;;;-146.27;67.33;82022.63;5022781;28;20466;-68
2023/10/05 05:36:58;;;;;;;9.90;1.70;;;;;;;-146.27;67.05;82000.53;5016167;28;20047;-67
2023/10/05 05:39:25;;;;;;;11.85;1.80;;;;;;;-146.27;67.65;82046.72;5023535;28;20032;-67
2023/10/05 05:41:59;;;;;;;15.02;2.45;;;;;;;-146.27;67.97;82072.84;5021777;28;20465;-68
2023/10/05 05:44:28;;;;;;;6.68;1.75;;;;;;;-146.27;67.47;82058.78;5018571;28;20029;-67
2023/10/05 05:46:59;;;;;;;7.25;1.65;;;;;;;-146.27;67.69;82070.81;5024623;28;20033;-68
2023/10/05 05:49:26;;;;;;;5.13;1.65;;;;;;;-146.27;67.27;82034.66;5023350;28;20470;-67
2023/10/05 05:51:52;;;;;;;7.97;1.50;;;;;;;-146.27;67.17;82056.75;5019619;28;20029;-68
2023/10/05 05:54:18;;;;;;;5.75;1.50;;;;;;;-146.27;67.45;82066.81;5013886;28;20033;-68
2023/10/05 05:56:44;;;;;;;7.25;1.80;;;;;;;-146.27;67.33;82034.66;5019244;28;20051;-69
2023/10/05 05:59:09;;;;;;;8.18;1.98;;;;;;;-146.27;67.45;82018.59;5039791;28;20029;-68
2023/10/05 06:01:35;;;;;;;12.93;1.70;;;;;;;-146.27;67.45;82034.66;5037133;28;20059;-69
2023/10/05 06:04:01;;;;;;;6.70;1.40;;;;;;;-146.27;67.61;82002.53;5037420;28;20524;-67
2023/10/05 06:06:27;;;;;;;11.70;2.25;;;;;;;-146.27;67.57;81998.50;5030028;28;20033;-68
2023/10/05 06:08:52;;;;;;;9.32;2.00;;;;;;;-146.27;67.99;82014.59;5016057;28;20067;-68
2023/10/05 06:11:19;;;;;;;13.85;2.00;;;;;;;-146.27;68.00;82000.53;5022279;28;20564;-68
2023/10/05 06:13:45;;;;;;;9.15;1.92;;;;;;;-146.27;68.02;82034.66;5014637;28;20032;-67
2023/10/05 06:16:11;;;;;;;11.55;1.83;;;;;;;-146.27;68.30;81996.50;5024291;28;20053;-69
2023/10/05 06:18:37;;;;;;;6.60;1.50;;;;;;;-146.27;68.23;82040.69;5023798;28;20079;-68
2023/10/05 06:21:04;;;;;;;7.30;2.08;;;;;;;-146.27;68.08;82042.69;5029850;28;20163;-69
2023/10/05 06:23:32;;;;;;;7.68;1.45;;;;;;;-146.27;68.09;82026.63;5027624;28;20033;-66
2023/10/05 06:25:59;;;;;;;12.40;1.85;;;;;;;-146.27;67.91;82024.63;5026272;28;20176;-68
2023/10/05 06:28:25;;;;;;;6.85;1.67;;;;;;;-146.27;68.12;82004.53;5026401;28;20430;-68
2023/10/05 06:30:52;;;;;;;10.80;2.17;;;;;;;-146.27;68.34;82006.53;5029235;28;20108;-69
2023/10/05 06:33:17;;;;;;;9.35;1.85;;;;;;;-146.27;68.16;82020.59;5029966;28;20036;-69
2023/10/05 06:35:43;;;;;;;6.00;1.45;;;;;;;-146.27;68.26;81984.47;5028164;28;20021;-68
2023/10/05 06:38:09;;;;;;;8.80;1.90;;;;;;;-146.27;68.55;82022.63;5009337;28;20030;-68
2023/10/05 06:40:34;;;;;;;13.95;2.13;;;;;;;-146.27;69.00;82018.59;5010719;28;20033;-69
2023/10/05 06:43:00;;;;;;;15.90;2.20;;;;;;;-146.27;69.07;82018.59;5023833;28;20029;-68
2023/10/05 06:45:25;;;;;;;11.38;2.47;;;;;;;-146.27;69.07;82006.53;5016292;28;20082;-68
2023/10/05 06:47:51;;;;;;;10.32;2.67;;;;;;;-146.27;69.73;82000.53;5027628;28;20021;-68
2023/10/05 06:50:17;;;;;;;10.30;2.53;;;;;;;-146.27;69.61;82000.53;5027914;28;20037;-67
2023/10/05 06:52:44;;;;;;;10.73;1.92;;;;;;;-146.27;69.85;81998.50;5023068;28;20140;-68
2023/10/05 06:55:13;;;;;;;12.23;2.30;;;;;;;-146.27;69.76;82014.59;5025971;28;20029;-68
2023/10/05 06:57:44;;;;;;;6.00;1.73;;;;;;;-146.27;70.07;82016.59;5028540;28;20037;-68
2023/10/05 07:00:20;;;;;;;13.02;2.20;;;;;;;-146.27;69.71;82000.53;5029437;28;20099;-68
2023/10/05 07:02:50;;;;;;;12.38;2.08;;;;;;;-146.27;69.29;81970.41;5029809;28;20068;-68
2023/10/05 07:05:17;;;;;;;14.90;2.33;;;;;;;-146.27;69.19;81978.44;5028661;28;20086;-68
2023/10/05 07:07:43;;;;;;;6.53;1.90;;;;;;;-146.27;69.07;81946.28;5028170;28;20036;-68
2023/10/05 07:10:12;;;;;;;9.88;1.83;;;;;;;-146.27;69.08;81966.38;5027450;28;20696;-67
2023/10/05 07:12:42;;;;;;;9.55;1.85;;;;;;;-146.27;68.90;81878.00;5028344;28;20060;-68
2023/10/05 07:15:08;;;;;;;10.25;2.78;;;;;;;-146.27;68.91;81865.94;5023708;28;20093;-69
2023/10/05 07:17:33;;;;;;;8.73;1.98;;;;;;;-146.27;69.10;81873.97;5030067;28;20028;-68
2023/10/05 07:19:59;;;;;;;13.27;2.92;;;;;;;-146.27;68.69;81886.03;5028851;28;20446;-68
2023/10/05 07:22:25;;;;;;;10.13;1.85;;;;;;;-146.27;68.97;81918.16;5026797;28;20025;-68
2023/10/05 07:24:50;;;;;;;14.25;2.80;;;;;;;-146.27;68.88;81880.00;5027446;28;20033;-68
2023/10/05 07:27:17;;;;;;;7.97;1.98;;;;;;;-146.27;68.88;81896.06;5022458;28;20029;-68
2023/10/05 07:29:45;;;;;;;10.75;1.95;;;;;;;-146.27;68.87;81853.91;5029681;28;20049;-68
2023/10/05 07:32:13;;;;;;;7.82;2.15;;;;;;;-146.27;68.44;81865.94;5027822;28;20441;-68
2023/10/05 07:34:43;;;;;;;8.02;1.95;;;;;;;-146.27;68.65;81890.06;5040440;28;20377;-68
2023/10/05 07:37:12;;;;;;;11.10;2.20;;;;;;;-146.27;68.42;81857.91;5041735;28;20457;-68
2023/10/05 07:39:40;;;;;;;11.93;2.67;;;;;;;-146.27;68.69;81825.78;5030826;28;20095;-68
2023/10/05 07:42:08;;;;;;;11.45;2.05;;;;;;;-146.27;68.27;81817.75;5030176;28;20107;-68
2023/10/05 07:44:36;;;;;;;20.92;2.58;;;;;;;-146.27;68.36;81773.56;5032898;28;20044;-69
2023/10/05 07:47:02;;;;;;;11.38;1.90;;;;;;;-146.27;68.44;81898.09;5033624;28;20025;-67
2023/10/05 07:49:27;;;;;;;7.15;2.00;;;;;;;-146.27;68.38;81863.94;5020341;28;20036;-68
2023/10/05 07:51:53;;;;;;;8.68;2.00;;;;;;;-146.27;67.80;81767.53;5025492;28;20386;-68
2023/10/05 07:54:18;;;;;;;9.10;2.42;;;;;;;-146.27;68.92;81865.94;5023431;28;20030;-68
2023/10/05 07:56:45;;;;;;;12.80;2.65;;;;;;;-146.27;68.48;81749.47;5017176;28;20018;-67
2023/10/05 07:59:13;;;;;;;9.18;1.90;;;;;;;-146.27;68.49;81753.47;5020803;28;20041;-67
2023/10/05 08:01:40;;;;;;;5.80;2.40;;;;;;;-146.27;68.53;81753.47;5013932;28;20026;-67
2023/10/05 08:04:05;;;;;;;11.88;2.25;;;;;;;-146.27;68.38;81745.44;5013963;28;20678;-68
2023/10/05 08:06:31;;;;;;;6.55;2.10;;;;;;;-146.27;68.38;81719.31;5018016;28;20030;-68
2023/10/05 08:08:56;;;;;;;12.23;2.00;;;;;;;-146.27;68.06;81681.16;5016362;28;20018;-67
2023/10/05 08:11:21;;;;;;;7.72;1.65;;;;;;;-146.27;68.45;81759.50;5013764;28;20109;-67
2023/10/05 08:13:48;;;;;;;9.57;1.95;;;;;;;-146.27;68.36;81717.31;5014982;28;20110;-68
2023/10/05 08:16:13;;;;;;;9.82;2.42;;;;;;;-146.27;67.81;81667.09;5017721;28;20053;-68
2023/10/05 08:18:39;;;;;;;8.70;2.25;;;;;;;-146.27;67.80;81689.19;5017618;28;20026;-68
2023/10/05 08:21:05;;;;;;;10.23;1.60;;;;;;;-146.27;67.50;81655.06;5017472;28;20065;-68
2023/10/05 08:23:31;;;;;;;7.82;2.45;;;;;;;-146.27;67.15;81628.94;5013528;28;20030;-68
2023/10/05 08:25:59;;;;;;;9.43;1.60;;;;;;;-146.27;67.43;81632.97;5013320;28;20394;-68
2023/10/05 08:28:25;;;;;;;8.00;1.55;;;;;;;-146.27;67.08;81592.78;5011811;28;20028;-68
2023/10/05 08:31:11;;;;;;;7.90;2.03;;;;;;;-146.27;67.69;81657.06;5016745;28;20025;-69
2023/10/05 08:33:39;;;;;;;9.90;1.98;;;;;;;-146.27;67.21;81649.03;5032813;28;20105;-68
2023/10/05 08:36:12;;;;;;;10.82;1.95;;;;;;;-146.27;68.04;81717.31;5031344;28;20021;-68
2023/10/05 08:38:40;;;;;;;7.80;1.80;;;;;;;-146.27;67.60;81665.09;5032038;28;20030;-68
2023/10/05 08:41:11;;;;;;;13.02;2.15;;;;;;;-146.27;67.90;81685.19;5030712;28;20486;-68
2023/10/05 08:43:40;;;;;;;8.43;2.05;;;;;;;-146.27;68.44;81699.25;5029005;28;20045;-67
2023/10/05 08:46:14;;;;;;;6.05;1.70;;;;;;;-146.27;68.04;81669.13;5025064;28;20477;-68
2023/10/05 08:48:40;;;;;;;8.30;1.88;;;;;;;-146.27;68.73;81697.22;5032676;28;20032;-69
2023/10/05 08:51:12;;;;;;;10.27;1.70;;;;;;;-146.27;68.50;81697.22;5031314;28;20033;-68
2023/10/05 08:53:50;;;;;;;7.57;1.73;;;;;;;-146.27;68.89;81705.28;5032761;28;20025;-68
2023/10/05 08:56:16;;;;;;;5.15;1.65;;;;;;;-146.27;68.71;81691.22;5015928;28;20080;-68
2023/10/05 08:58:46;;;;;;;11.40;1.92;;;;;;;-146.27;68.77;81665.09;5029867;28;20104;-69
2023/10/05 09:01:29;;;;;;;10.35;3.42;;;;;;;-146.27;69.20;81713.31;5032211;28;20053;-68
2023/10/05 09:04:11;;;;;;;16.75;2.13;;;;;;;-146.27;68.48;81634.97;5019212;28;20030;-69
2023/10/05 09:06:55;;;;;;;7.07;1.83;;;;;;;-146.27;68.12;81624.94;5012474;28;20026;-67
2023/10/05 09:09:52;;;;;;;10.18;2.03;;;;;;;-146.27;67.86;81606.84;5012250;28;20029;-68
2023/10/05 09:12:41;;;;;;;11.80;2.20;;;;;;;-146.27;68.81;81614.88;5012835;28;20026;-68
2023/10/05 09:17:57;;;;;;;14.32;2.53;;;;;;;-146.27;68.74;81671.13;5031912;28;20160;-67
2023/10/05 09:20:30;;;;;;;11.88;2.03;;;;;;;-146.27;68.33;81685.19;5032043;28;20038;-67
2023/10/05 09:23:09;;;;;;;8.15;1.73;;;;;;;-146.27;68.05;81655.06;5031962;28;20026;-67
2023/10/05 09:25:38;;;;;;;6.50;1.63;;;;;;;-146.27;68.03;81641.00;5031898;28;20346;-68
2023/10/05 09:28:14;;;;;;;13.40;2.50;;;;;;;-146.27;68.38;81580.75;5031177;28;20029;-68
2023/10/05 09:30:59;;;;;;;7.05;1.70;;;;;;;-146.27;68.13;81677.16;5013286;28;20398;-67
2023/10/05 09:33:33;;;;;;;10.10;1.98;;;;;;;-146.27;67.94;81697.22;5012008;28;20030;-67
2023/10/05 09:36:19;;;;;;;9.10;1.52;;;;;;;-146.27;68.05;81703.25;5011805;28;20079;-68
2023/10/05 09:38:46;;;;;;;10.52;1.70;;;;;;;-146.27;67.72;81608.88;5021079;28;20028;-68
2023/10/05 09:41:15;;;;;;;12.45;1.88;;;;;;;-146.27;68.37;81630.97;5027836;28;20425;-68
2023/10/05 09:43:42;;;;;;;10.43;1.70;;;;;;;-146.27;68.37;81624.94;5022470;28;20049;-68
2023/10/05 09:46:14;;;;;;;12.00;2.10;;;;;;;-146.27;68.20;81616.91;5015873;28;20025;-67
2023/10/05 09:48:40;;;;;;;9.75;2.25;;;;;;;-146.27;68.34;81604.84;5030710;28;20021;-69
2023/10/05 09:51:10;;;;;;;7.78;2.25;;;;;;;-146.27;68.63;81586.78;5031048;28;20029;-67
2023/10/05 09:53:42;;;;;;;12.48;1.98;;;;;;;-146.27;68.49;81598.81;5028075;28;20039;-67
2023/10/05 09:56:11;;;;;;;14.93;2.70;;;;;;;-146.27;68.55;81600.84;5023961;28;20029;-68
2023/10/05 09:58:39;;;;;;;9.27;2.03;;;;;;;-146.27;67.83;81578.75;5015034;28;20053;-69
2023/10/05 10:01:12;;;;;;;8.88;2.28;;;;;;;-146.27;67.64;81516.47;5017473;28;20034;-68
2023/10/05 10:03:45;;;;;;;9.13;2.72;;;;;;;-146.27;67.24;81470.28;5022758;28;20090;-67
2023/10/05 10:06:14;;;;;;;15.87;2.33;;;;;;;-146.27;67.47;81506.44;5016011;28;20062;-68
2023/10/05 10:08:56;;;;;;;14.38;2.10;;;;;;;-146.27;67.30;81538.56;5028670;28;20030;-68
2023/10/05 10:11:27;;;;;;;8.23;1.90;;;;;;;-146.27;67.94;81540.56;5025508;28;20048;-68
2023/10/05 10:14:01;;;;;;;9.32;1.60;;;;;;;-146.27;67.67;81608.88;5017032;28;20087;-67
2023/10/05 10:16:28;;;;;;;14.07;2.17;;;;;;;-146.27;67.03;81512.47;5024595;28;20033;-68
2023/10/05 10:19:04;;;;;;;11.43;1.92;;;;;;;-146.27;66.81;81498.41;5017436;28;20119;-70
2023/10/05 10:21:42;;;;;;;8.57;1.80;;;;;;;-146.27;66.74;81504.44;5026284;28;20108;-68
2023/10/05 10:24:14;;;;;;;10.13;2.13;;;;;;;-146.27;66.28;81448.19;5013399;28;20057;-68
2023/10/05 10:26:45;;;;;;;6.75;1.58;;;;;;;-146.27;65.80;81408.03;5019511;28;20018;-68
2023/10/05 10:29:11;;;;;;;8.93;1.70;;;;;;;-146.27;66.53;81472.28;5015183;28;20120;-69
2023/10/05 10:31:47;;;;;;;8.65;1.83;;;;;;;-146.27;65.94;81452.22;5024795;28;20029;-69
2023/10/05 10:34:28;;;;;;;5.03;1.38;;;;;;;-146.27;65.64;81359.81;5029948;28;20591;-69
2023/10/05 10:36:57;;;;;;;9.63;1.42;;;;;;;-146.27;65.37;81359.81;5030404;28;20371;-68
2023/10/05 10:39:24;;;;;;;10.18;1.88;;;;;;;-146.27;64.64;81363.84;5028687;28;20037;-68
2023/10/05 10:41:53;;;;;;;11.60;2.53;;;;;;;-146.27;63.53;81227.28;5029622;28;20539;-68
2023/10/05 10:44:24;;;;;;;11.52;2.63;;;;;;;-146.27;62.98;81183.09;5029092;28;20069;-68
2023/10/05 10:46:54;;;;;;;7.40;2.03;;;;;;;-146.27;63.00;81277.50;5024425;28;20025;-68
2023/10/05 10:49:19;;;;;;;5.80;1.98;;;;;;;-146.27;62.41;81251.38;5013015;28;20604;-68
2023/10/05 10:51:46;;;;;;;9.73;1.88;;;;;;;-146.27;62.28;81215.22;5029601;28;20025;-68
2023/10/05 10:54:17;;;;;;;11.05;2.05;;;;;;;-146.27;62.16;81223.25;5026604;28;20408;-68
2023/10/05 10:56:44;;;;;;;8.20;1.67;;;;;;;-146.27;62.62;81243.34;5021077;28;20022;-68
2023/10/05 10:59:19;;;;;;;8.75;1.85;;;;;;;-146.27;62.61;81329.72;5025631;28;20025;-68
2023/10/05 11:01:45;;;;;;;9.48;1.83;;;;;;;-146.27;62.15;81179.09;5013196;28;20474;-69
2023/10/05 11:04:23;;;;;;;7.32;1.80;;;;;;;-146.27;61.66;81167.03;5011414;28;20108;-68
2023/10/05 11:06:56;;;;;;;9.52;2.30;;;;;;;-146.27;60.17;81155.00;5039457;28;20054;-68
2023/10/05 11:09:30;;;;;;;10.27;1.83;;;;;;;-146.27;59.70;81219.25;5032541;28;20072;-68
2023/10/05 11:12:08;;;;;;;;;;;;;;;-146.27;59.59;81146.97;5033828;28;20569;-69
2023/10/05 11:14:34;;;;;;;6.13;1.90;;;;;;;-146.27;60.12;81167.03;5040873;28;19917;-68
2023/10/05 11:17:00;;;;;;;7.68;2.00;;;;;;;-146.27;61.83;81327.69;5019270;28;20060;-68
2023/10/05 11:19:36;;;;;;;8.82;1.98;;;;;;;-146.27;61.46;81169.03;5018906;28;20585;-69
2023/10/05 11:22:07;;;;;;;7.30;1.90;;;;;;;-146.27;60.31;81175.06;5031351;28;20035;-68
2023/10/05 11:24:40;;;;;;;10.95;2.20;;;;;;;-146.27;59.84;80974.25;5037106;28;20397;-70
2023/10/05 11:27:14;;;;;;;7.60;1.80;;;;;;;-146.27;56.79;80905.97;5025356;28;20064;-68
2023/10/05 11:29:48;;;;;;;9.25;2.40;;;;;;;-146.27;55.93;80745.34;5019832;28;20030;-68
2023/10/05 11:32:19;;;;;;;;;;;;;;;-146.27;53.45;80665.03;5025506;28;20033;-68
2023/10/05 11:34:46;;;;;;;7.97;2.25;;;;;;;-146.27;52.62;80588.72;5039806;28;20045;-67
2023/10/05 11:37:18;;;;;;;5.10;1.83;;;;;;;-146.27;49.83;80355.81;5033197;28;20130;-68
2023/10/05 11:39:49;;;;;;;5.95;1.92;;;;;;;-146.27;49.36;80177.13;5030661;28;20541;-67
2023/10/05 11:42:16;;;;;;;4.40;1.63;;;;;;;-146.27;48.34;79994.41;5017539;28;20029;-68
2023/10/05 11:44:44;;;;;;;10.73;2.38;;;;;;;-146.27;47.54;80106.84;5017673;28;20056;-69
2023/10/05 11:47:32;;;;;;;9.57;2.20;;;;;;;-146.27;48.17;80420.06;5043097;28;20032;-68